sensor_id;sensor_type;location;lat;lon;timestamp;pressure;altitude;pressure_sealevel;temperature;humidity
38912;BME280;28444;48.056;14.408;2022-12-07T00:01:15;97488.72;;;3.59;94.74
38912;BME280;28444;48.056;14.408;2022-12-07T00:03:43;97493.66;;;3.60;93.68
38912;BME280;28444;48.056;14.408;2022-12-07T00:06:12;97486.47;;;3.63;93.94
38912;BME280;28444;48.056;14.408;2022-12-07T00:08:39;97492.41;;;3.61;92.96
38912;BME280;28444;48.056;14.408;2022-12-07T00:11:11;97491.75;;;3.55;93.90
38912;BME280;28444;48.056;14.408;2022-12-07T00:13:39;97484.53;;;3.45;94.17
38912;BME280;28444;48.056;14.408;2022-12-07T00:16:14;97489.75;;;3.43;94.95
38912;BME280;28444;48.056;14.408;2022-12-07T00:18:42;97488.00;;;3.45;94.07
38912;BME280;28444;48.056;14.408;2022-12-07T00:21:13;97487.03;;;3.43;93.60
38912;BME280;28444;48.056;14.408;2022-12-07T00:23:42;97479.06;;;3.50;93.33
38912;BME280;28444;48.056;14.408;2022-12-07T00:26:21;97481.81;;;3.45;93.26
38912;BME280;28444;48.056;14.408;2022-12-07T00:28:49;97486.81;;;3.41;93.03
38912;BME280;28444;48.056;14.408;2022-12-07T00:31:18;97470.09;;;3.42;94.08
38912;BME280;28444;48.056;14.408;2022-12-07T00:33:46;97475.56;;;3.36;93.79
38912;BME280;28444;48.056;14.408;2022-12-07T00:36:16;97468.84;;;3.43;93.24
38912;BME280;28444;48.056;14.408;2022-12-07T00:38:50;97470.88;;;3.37;93.46
38912;BME280;28444;48.056;14.408;2022-12-07T00:41:18;97472.56;;;3.40;93.45
38912;BME280;28444;48.056;14.408;2022-12-07T00:43:46;97463.81;;;3.34;94.02
38912;BME280;28444;48.056;14.408;2022-12-07T00:46:14;97473.59;;;3.37;94.37
38912;BME280;28444;48.056;14.408;2022-12-07T00:48:41;97470.88;;;3.37;94.18
38912;BME280;28444;48.056;14.408;2022-12-07T00:51:10;97474.84;;;3.36;94.01
38912;BME280;28444;48.056;14.408;2022-12-07T00:53:38;97477.13;;;3.32;93.91
38912;BME280;28444;48.056;14.408;2022-12-07T00:56:09;97472.66;;;3.34;94.25
38912;BME280;28444;48.056;14.408;2022-12-07T00:58:36;97476.91;;;3.30;94.20
38912;BME280;28444;48.056;14.408;2022-12-07T01:01:04;97481.94;;;3.39;93.99
38912;BME280;28444;48.056;14.408;2022-12-07T01:03:32;97481.22;;;3.38;93.95
38912;BME280;28444;48.056;14.408;2022-12-07T01:05:59;97484.50;;;3.31;94.17
38912;BME280;28444;48.056;14.408;2022-12-07T01:08:27;97483.47;;;3.34;94.55
38912;BME280;28444;48.056;14.408;2022-12-07T01:11:15;97488.13;;;3.34;93.96
38912;BME280;28444;48.056;14.408;2022-12-07T01:13:42;97487.41;;;3.33;94.44
38912;BME280;28444;48.056;14.408;2022-12-07T01:16:12;97476.59;;;3.33;94.15
38912;BME280;28444;48.056;14.408;2022-12-07T01:18:40;97483.03;;;3.30;94.11
38912;BME280;28444;48.056;14.408;2022-12-07T01:21:18;97482.81;;;3.28;94.01
38912;BME280;28444;48.056;14.408;2022-12-07T01:23:45;97485.81;;;3.25;94.28
38912;BME280;28444;48.056;14.408;2022-12-07T01:26:13;97485.09;;;3.24;94.49
38912;BME280;28444;48.056;14.408;2022-12-07T01:28:41;97484.28;;;3.29;94.51
38912;BME280;28444;48.056;14.408;2022-12-07T01:31:11;97481.97;;;3.20;94.70
38912;BME280;28444;48.056;14.408;2022-12-07T01:33:46;97476.75;;;3.22;94.35
38912;BME280;28444;48.056;14.408;2022-12-07T01:36:18;97473.13;;;3.20;94.96
38912;BME280;28444;48.056;14.408;2022-12-07T01:38:48;97469.75;;;3.32;94.78
38912;BME280;28444;48.056;14.408;2022-12-07T01:41:18;97482.72;;;3.34;94.73
38912;BME280;28444;48.056;14.408;2022-12-07T01:44:09;97476.91;;;3.30;94.94
38912;BME280;28444;48.056;14.408;2022-12-07T01:46:37;97464.19;;;3.25;94.36
38912;BME280;28444;48.056;14.408;2022-12-07T01:49:06;97463.84;;;3.15;95.41
38912;BME280;28444;48.056;14.408;2022-12-07T01:51:36;97464.50;;;3.21;95.72
38912;BME280;28444;48.056;14.408;2022-12-07T01:54:05;97463.97;;;3.23;94.87
38912;BME280;28444;48.056;14.408;2022-12-07T01:56:32;97464.44;;;3.27;94.88
38912;BME280;28444;48.056;14.408;2022-12-07T01:59:00;97464.84;;;3.31;94.41
38912;BME280;28444;48.056;14.408;2022-12-07T02:01:27;97454.81;;;3.12;94.95
38912;BME280;28444;48.056;14.408;2022-12-07T02:03:55;97450.63;;;3.11;95.27
38912;BME280;28444;48.056;14.408;2022-12-07T02:06:24;97464.38;;;3.13;96.00
38912;BME280;28444;48.056;14.408;2022-12-07T02:08:52;97453.34;;;3.11;96.57
38912;BME280;28444;48.056;14.408;2022-12-07T02:11:20;97454.66;;;3.05;96.39
38912;BME280;28444;48.056;14.408;2022-12-07T02:13:47;97453.47;;;3.19;96.25
38912;BME280;28444;48.056;14.408;2022-12-07T02:16:46;97445.88;;;3.18;95.96
38912;BME280;28444;48.056;14.408;2022-12-07T02:29:04;97452.47;;;3.03;98.88
38912;BME280;28444;48.056;14.408;2022-12-07T02:31:40;97437.66;;;3.10;98.73
38912;BME280;28444;48.056;14.408;2022-12-07T02:34:19;97434.50;;;3.06;99.05
38912;BME280;28444;48.056;14.408;2022-12-07T02:36:54;97447.19;;;3.11;98.42
38912;BME280;28444;48.056;14.408;2022-12-07T02:42:57;97435.25;;;3.06;99.13
38912;BME280;28444;48.056;14.408;2022-12-07T02:45:26;97435.75;;;3.05;99.48
38912;BME280;28444;48.056;14.408;2022-12-07T02:47:58;97433.78;;;3.05;98.78
38912;BME280;28444;48.056;14.408;2022-12-07T02:50:26;97442.22;;;3.15;98.68
38912;BME280;28444;48.056;14.408;2022-12-07T02:52:53;97438.78;;;3.14;98.04
38912;BME280;28444;48.056;14.408;2022-12-07T02:55:29;97441.94;;;3.19;98.13
38912;BME280;28444;48.056;14.408;2022-12-07T02:58:19;97432.50;;;3.25;98.07
38912;BME280;28444;48.056;14.408;2022-12-07T03:01:14;97438.72;;;3.20;97.41
38912;BME280;28444;48.056;14.408;2022-12-07T03:03:48;97434.84;;;3.16;97.80
38912;BME280;28444;48.056;14.408;2022-12-07T03:06:31;97436.22;;;3.22;97.39
38912;BME280;28444;48.056;14.408;2022-12-07T03:09:20;97440.41;;;3.23;97.14
38912;BME280;28444;48.056;14.408;2022-12-07T03:12:06;97437.91;;;3.25;97.58
38912;BME280;28444;48.056;14.408;2022-12-07T03:14:45;97442.66;;;3.19;97.28
38912;BME280;28444;48.056;14.408;2022-12-07T03:17:17;97441.03;;;3.29;96.49
38912;BME280;28444;48.056;14.408;2022-12-07T03:19:46;97437.53;;;3.34;95.91
38912;BME280;28444;48.056;14.408;2022-12-07T03:22:15;97438.84;;;3.28;96.59
38912;BME280;28444;48.056;14.408;2022-12-07T03:24:51;97434.91;;;3.29;96.04
38912;BME280;28444;48.056;14.408;2022-12-07T03:27:55;97435.28;;;3.20;96.29
38912;BME280;28444;48.056;14.408;2022-12-07T03:33:24;97432.78;;;3.22;96.58
38912;BME280;28444;48.056;14.408;2022-12-07T03:36:20;97430.09;;;3.22;96.80
38912;BME280;28444;48.056;14.408;2022-12-07T03:38:57;97433.09;;;3.18;96.33
38912;BME280;28444;48.056;14.408;2022-12-07T03:41:30;97435.06;;;3.18;96.19
38912;BME280;28444;48.056;14.408;2022-12-07T03:43:57;97437.34;;;3.13;96.21
38912;BME280;28444;48.056;14.408;2022-12-07T03:47:01;97438.44;;;3.24;95.91
38912;BME280;28444;48.056;14.408;2022-12-07T03:49:53;97440.78;;;3.14;97.44
38912;BME280;28444;48.056;14.408;2022-12-07T03:52:36;97443.69;;;3.16;97.31
38912;BME280;28444;48.056;14.408;2022-12-07T03:55:17;97437.34;;;3.13;97.62
38912;BME280;28444;48.056;14.408;2022-12-07T03:57:47;97438.25;;;3.03;97.96
38912;BME280;28444;48.056;14.408;2022-12-07T04:00:16;97447.06;;;3.03;97.71
38912;BME280;28444;48.056;14.408;2022-12-07T04:02:44;97442.53;;;3.11;97.76
38912;BME280;28444;48.056;14.408;2022-12-07T04:05:11;97446.72;;;2.94;98.64
38912;BME280;28444;48.056;14.408;2022-12-07T04:07:38;97440.25;;;2.83;98.57
38912;BME280;28444;48.056;14.408;2022-12-07T04:10:05;97443.22;;;2.99;98.61
38912;BME280;28444;48.056;14.408;2022-12-07T04:12:32;97440.81;;;2.95;99.44
38912;BME280;28444;48.056;14.408;2022-12-07T04:14:59;97444.38;;;3.03;99.30
38912;BME280;28444;48.056;14.408;2022-12-07T04:17:25;97446.13;;;3.01;99.04
38912;BME280;28444;48.056;14.408;2022-12-07T04:19:52;97440.28;;;2.97;99.61
38912;BME280;28444;48.056;14.408;2022-12-07T04:22:19;97442.19;;;3.02;99.41
38912;BME280;28444;48.056;14.408;2022-12-07T04:24:45;97450.19;;;3.07;99.93
38912;BME280;28444;48.056;14.408;2022-12-07T04:27:12;97438.84;;;2.96;100.00
38912;BME280;28444;48.056;14.408;2022-12-07T04:29:39;97445.78;;;2.91;100.00
38912;BME280;28444;48.056;14.408;2022-12-07T04:32:05;97445.78;;;2.91;100.00
38912;BME280;28444;48.056;14.408;2022-12-07T04:34:32;97446.81;;;2.88;100.00
38912;BME280;28444;48.056;14.408;2022-12-07T04:36:59;97450.88;;;2.95;100.00
38912;BME280;28444;48.056;14.408;2022-12-07T04:39:28;97443.88;;;2.86;100.00
38912;BME280;28444;48.056;14.408;2022-12-07T04:41:55;97451.53;;;2.82;100.00
38912;BME280;28444;48.056;14.408;2022-12-07T04:44:23;97452.25;;;2.82;100.00
38912;BME280;28444;48.056;14.408;2022-12-07T04:46:51;97446.19;;;2.57;100.00
38912;BME280;28444;48.056;14.408;2022-12-07T04:49:18;97456.06;;;2.55;100.00
38912;BME280;28444;48.056;14.408;2022-12-07T04:51:45;97447.59;;;2.64;100.00
38912;BME280;28444;48.056;14.408;2022-12-07T04:54:13;97449.56;;;2.45;100.00
38912;BME280;28444;48.056;14.408;2022-12-07T04:56:40;97442.84;;;2.51;100.00
38912;BME280;28444;48.056;14.408;2022-12-07T04:59:07;97447.75;;;2.53;100.00
38912;BME280;28444;48.056;14.408;2022-12-07T05:01:34;97444.66;;;2.43;100.00
38912;BME280;28444;48.056;14.408;2022-12-07T05:04:00;97442.75;;;2.38;100.00
38912;BME280;28444;48.056;14.408;2022-12-07T05:06:27;97439.31;;;2.19;100.00
38912;BME280;28444;48.056;14.408;2022-12-07T05:08:54;97445.44;;;2.19;100.00
38912;BME280;28444;48.056;14.408;2022-12-07T05:11:20;97437.06;;;2.23;100.00
38912;BME280;28444;48.056;14.408;2022-12-07T05:14:14;97442.63;;;2.30;100.00
38912;BME280;28444;48.056;14.408;2022-12-07T05:16:42;97438.50;;;2.24;100.00
38912;BME280;28444;48.056;14.408;2022-12-07T05:19:10;97442.50;;;2.17;100.00
38912;BME280;28444;48.056;14.408;2022-12-07T05:21:37;97436.19;;;2.14;100.00
38912;BME280;28444;48.056;14.408;2022-12-07T05:24:05;97435.13;;;2.17;100.00
38912;BME280;28444;48.056;14.408;2022-12-07T05:26:32;97432.00;;;2.13;100.00
38912;BME280;28444;48.056;14.408;2022-12-07T05:28:59;97437.97;;;2.06;100.00
38912;BME280;28444;48.056;14.408;2022-12-07T05:31:26;97433.84;;;2.24;100.00
38912;BME280;28444;48.056;14.408;2022-12-07T05:33:53;97425.97;;;2.26;100.00
38912;BME280;28444;48.056;14.408;2022-12-07T05:36:21;97438.94;;;2.28;100.00
38912;BME280;28444;48.056;14.408;2022-12-07T05:38:48;97441.22;;;2.24;100.00
38912;BME280;28444;48.056;14.408;2022-12-07T05:41:17;97433.13;;;2.24;100.00
38912;BME280;28444;48.056;14.408;2022-12-07T05:44:03;97449.75;;;2.28;100.00
38912;BME280;28444;48.056;14.408;2022-12-07T05:46:30;97444.34;;;2.28;100.00
38912;BME280;28444;48.056;14.408;2022-12-07T05:48:56;97441.16;;;2.29;100.00
38912;BME280;28444;48.056;14.408;2022-12-07T05:51:23;97443.06;;;2.34;100.00
38912;BME280;28444;48.056;14.408;2022-12-07T05:53:50;97453.56;;;2.38;100.00
38912;BME280;28444;48.056;14.408;2022-12-07T05:56:16;97451.81;;;2.40;100.00
38912;BME280;28444;48.056;14.408;2022-12-07T05:58:43;97452.03;;;2.42;100.00
38912;BME280;28444;48.056;14.408;2022-12-07T06:01:28;97457.53;;;2.56;100.00
38912;BME280;28444;48.056;14.408;2022-12-07T06:03:55;97458.97;;;2.57;100.00
38912;BME280;28444;48.056;14.408;2022-12-07T06:06:22;97455.19;;;2.65;100.00
38912;BME280;28444;48.056;14.408;2022-12-07T06:08:49;97459.13;;;2.64;100.00
38912;BME280;28444;48.056;14.408;2022-12-07T06:11:15;97452.94;;;2.70;100.00
38912;BME280;28444;48.056;14.408;2022-12-07T06:14:01;97460.00;;;2.54;100.00
38912;BME280;28444;48.056;14.408;2022-12-07T06:16:27;97454.88;;;2.50;100.00
38912;BME280;28444;48.056;14.408;2022-12-07T06:18:54;97459.50;;;2.55;100.00
38912;BME280;28444;48.056;14.408;2022-12-07T06:21:21;97458.97;;;2.57;100.00
38912;BME280;28444;48.056;14.408;2022-12-07T06:23:47;97463.66;;;2.56;100.00
38912;BME280;28444;48.056;14.408;2022-12-07T06:26:14;97464.16;;;2.55;100.00
38912;BME280;28444;48.056;14.408;2022-12-07T06:28:41;97470.66;;;2.65;100.00
38912;BME280;28444;48.056;14.408;2022-12-07T06:31:08;97474.09;;;2.65;100.00
38912;BME280;28444;48.056;14.408;2022-12-07T06:33:40;97477.53;;;2.66;100.00
38912;BME280;28444;48.056;14.408;2022-12-07T06:36:07;97475.25;;;2.70;100.00
38912;BME280;28444;48.056;14.408;2022-12-07T06:38:34;97484.16;;;2.65;100.00
38912;BME280;28444;48.056;14.408;2022-12-07T06:41:00;97485.84;;;2.68;100.00
38912;BME280;28444;48.056;14.408;2022-12-07T06:43:27;97481.16;;;2.69;100.00
38912;BME280;28444;48.056;14.408;2022-12-07T06:45:54;97485.78;;;2.74;100.00
38912;BME280;28444;48.056;14.408;2022-12-07T06:48:20;97485.34;;;2.70;100.00
38912;BME280;28444;48.056;14.408;2022-12-07T06:50:48;97488.91;;;2.78;100.00
38912;BME280;28444;48.056;14.408;2022-12-07T06:53:20;97489.16;;;2.80;100.00
38912;BME280;28444;48.056;14.408;2022-12-07T06:55:46;97488.91;;;2.78;100.00
38912;BME280;28444;48.056;14.408;2022-12-07T06:58:13;97497.47;;;2.82;100.00
38912;BME280;28444;48.056;14.408;2022-12-07T07:00:40;97488.47;;;2.74;100.00
38912;BME280;28444;48.056;14.408;2022-12-07T07:03:07;97496.28;;;2.77;100.00
38912;BME280;28444;48.056;14.408;2022-12-07T07:05:33;97490.91;;;2.77;100.00
38912;BME280;28444;48.056;14.408;2022-12-07T07:08:00;97491.75;;;2.67;100.00
38912;BME280;28444;48.056;14.408;2022-12-07T07:10:47;97493.88;;;2.74;100.00
38912;BME280;28444;48.056;14.408;2022-12-07T07:13:13;97493.22;;;2.68;100.00
38912;BME280;28444;48.056;14.408;2022-12-07T07:15:40;97492.19;;;2.71;100.00
38912;BME280;28444;48.056;14.408;2022-12-07T07:18:06;97502.72;;;2.74;100.00
38912;BME280;28444;48.056;14.408;2022-12-07T07:20:34;97503.16;;;2.78;99.12
38912;BME280;28444;48.056;14.408;2022-12-07T07:23:00;97499.44;;;2.81;99.52
38912;BME280;28444;48.056;14.408;2022-12-07T07:25:27;97501.47;;;2.75;99.93
38912;BME280;28444;48.056;14.408;2022-12-07T07:27:54;97502.06;;;2.87;99.08
38912;BME280;28444;48.056;14.408;2022-12-07T07:30:21;97502.72;;;2.93;98.48
38912;BME280;28444;48.056;14.408;2022-12-07T07:32:48;97506.13;;;2.94;97.83
38912;BME280;28444;48.056;14.408;2022-12-07T07:35:15;97509.66;;;3.07;97.82
38912;BME280;28444;48.056;14.408;2022-12-07T07:37:41;97502.34;;;3.02;98.24
38912;BME280;28444;48.056;14.408;2022-12-07T07:40:09;97511.84;;;2.90;98.65
38912;BME280;28444;48.056;14.408;2022-12-07T07:42:36;97512.59;;;2.91;98.98
38912;BME280;28444;48.056;14.408;2022-12-07T07:45:03;97512.78;;;2.93;98.64
38912;BME280;28444;48.056;14.408;2022-12-07T07:47:30;97514.34;;;2.88;99.10
38912;BME280;28444;48.056;14.408;2022-12-07T07:49:57;97522.34;;;2.94;97.91
38912;BME280;28444;48.056;14.408;2022-12-07T07:52:24;97522.28;;;2.99;97.21
38912;BME280;28444;48.056;14.408;2022-12-07T07:54:50;97522.97;;;3.05;97.37
38912;BME280;28444;48.056;14.408;2022-12-07T07:57:17;97522.28;;;2.99;96.51
38912;BME280;28444;48.056;14.408;2022-12-07T07:59:44;97522.59;;;2.96;97.09
38912;BME280;28444;48.056;14.408;2022-12-07T08:02:16;97523.75;;;3.00;97.83
38912;BME280;28444;48.056;14.408;2022-12-07T08:04:43;97525.13;;;3.07;97.25
38912;BME280;28444;48.056;14.408;2022-12-07T08:07:10;97523.44;;;3.04;96.82
38912;BME280;28444;48.056;14.408;2022-12-07T08:09:38;97524.13;;;3.10;96.64
38912;BME280;28444;48.056;14.408;2022-12-07T08:12:04;97521.84;;;3.14;95.98
38912;BME280;28444;48.056;14.408;2022-12-07T08:14:31;97531.50;;;3.09;96.00
38912;BME280;28444;48.056;14.408;2022-12-07T08:16:58;97528.78;;;3.09;96.17
38912;BME280;28444;48.056;14.408;2022-12-07T08:19:24;97531.25;;;3.07;96.34
38912;BME280;28444;48.056;14.408;2022-12-07T08:21:51;97533.31;;;3.20;96.02
38912;BME280;28444;48.056;14.408;2022-12-07T08:24:18;97535.44;;;3.27;95.48
38912;BME280;28444;48.056;14.408;2022-12-07T08:26:44;97536.75;;;3.21;96.05
38912;BME280;28444;48.056;14.408;2022-12-07T08:29:11;97530.91;;;3.17;97.00
38912;BME280;28444;48.056;14.408;2022-12-07T08:31:37;97536.53;;;3.19;96.19
38912;BME280;28444;48.056;14.408;2022-12-07T08:34:04;97532.72;;;3.27;95.16
38912;BME280;28444;48.056;14.408;2022-12-07T08:36:31;97533.75;;;3.24;94.53
38912;BME280;28444;48.056;14.408;2022-12-07T08:38:57;97545.06;;;3.23;94.67
38912;BME280;28444;48.056;14.408;2022-12-07T08:41:44;97548.66;;;3.31;93.23
38912;BME280;28444;48.056;14.408;2022-12-07T08:44:11;97553.53;;;3.32;93.50
38912;BME280;28444;48.056;14.408;2022-12-07T08:46:40;97555.59;;;3.45;93.50
38912;BME280;28444;48.056;14.408;2022-12-07T08:49:16;97549.66;;;3.47;93.98
38912;BME280;28444;48.056;14.408;2022-12-07T08:51:44;97551.94;;;3.43;93.70
38912;BME280;28444;48.056;14.408;2022-12-07T08:54:15;97544.00;;;3.45;93.66
38912;BME280;28444;48.056;14.408;2022-12-07T08:56:43;97549.59;;;3.52;93.73
38912;BME280;28444;48.056;14.408;2022-12-07T08:59:12;97545.41;;;3.51;93.49
38912;BME280;28444;48.056;14.408;2022-12-07T09:01:40;97543.13;;;3.55;92.34
38912;BME280;28444;48.056;14.408;2022-12-07T09:04:07;97541.16;;;3.56;92.97
38912;BME280;28444;48.056;14.408;2022-12-07T09:06:34;97545.56;;;3.40;92.73
38912;BME280;28444;48.056;14.408;2022-12-07T09:09:01;97542.78;;;3.46;92.62
38912;BME280;28444;48.056;14.408;2022-12-07T09:11:28;97538.25;;;3.54;91.01
38912;BME280;28444;48.056;14.408;2022-12-07T09:13:55;97543.47;;;3.65;91.91
38912;BME280;28444;48.056;14.408;2022-12-07T09:16:22;97542.94;;;3.67;92.24
38912;BME280;28444;48.056;14.408;2022-12-07T09:18:49;97547.72;;;3.60;90.41
38912;BME280;28444;48.056;14.408;2022-12-07T09:21:16;97544.50;;;3.62;91.47
38912;BME280;28444;48.056;14.408;2022-12-07T09:23:42;97546.19;;;3.65;90.50
38912;BME280;28444;48.056;14.408;2022-12-07T09:26:09;97542.75;;;3.65;90.23
38912;BME280;28444;48.056;14.408;2022-12-07T09:28:37;97545.69;;;3.48;89.32
38912;BME280;28444;48.056;14.408;2022-12-07T09:31:04;97548.41;;;3.48;90.75
38912;BME280;28444;48.056;14.408;2022-12-07T09:34:00;97541.38;;;3.58;89.13
38912;BME280;28444;48.056;14.408;2022-12-07T09:36:27;97541.06;;;3.61;86.43
38912;BME280;28444;48.056;14.408;2022-12-07T09:38:54;97537.41;;;3.59;85.07
38912;BME280;28444;48.056;14.408;2022-12-07T09:41:23;97543.56;;;3.59;86.88
38912;BME280;28444;48.056;14.408;2022-12-07T09:43:50;97545.03;;;3.60;86.55
38912;BME280;28444;48.056;14.408;2022-12-07T09:46:19;97536.63;;;3.64;86.70
38912;BME280;28444;48.056;14.408;2022-12-07T09:48:47;97535.50;;;3.73;87.59
38912;BME280;28444;48.056;14.408;2022-12-07T09:51:21;97539.28;;;3.83;85.73
38912;BME280;28444;48.056;14.408;2022-12-07T09:53:53;97539.03;;;3.81;82.49
38912;BME280;28444;48.056;14.408;2022-12-07T09:56:21;97530.13;;;3.86;82.97
38912;BME280;28444;48.056;14.408;2022-12-07T09:58:48;97520.25;;;3.89;83.64
38912;BME280;28444;48.056;14.408;2022-12-07T10:01:19;97513.06;;;3.91;83.74
38912;BME280;28444;48.056;14.408;2022-12-07T10:03:54;97516.28;;;4.03;83.40
38912;BME280;28444;48.056;14.408;2022-12-07T10:06:21;97513.81;;;4.05;82.42
38912;BME280;28444;48.056;14.408;2022-12-07T10:08:48;97504.31;;;3.98;80.65
38912;BME280;28444;48.056;14.408;2022-12-07T10:11:15;97518.38;;;3.97;81.56
38912;BME280;28444;48.056;14.408;2022-12-07T10:13:52;97519.84;;;3.98;79.62
38912;BME280;28444;48.056;14.408;2022-12-07T10:16:41;97512.25;;;3.96;81.02
38912;BME280;28444;48.056;14.408;2022-12-07T10:19:31;97513.69;;;3.97;81.22
38912;BME280;28444;48.056;14.408;2022-12-07T10:24:32;97506.00;;;4.01;79.99
38912;BME280;28444;48.056;14.408;2022-12-07T10:26:58;97505.59;;;3.97;79.98
38912;BME280;28444;48.056;14.408;2022-12-07T10:29:34;97499.56;;;4.04;79.98
38912;BME280;28444;48.056;14.408;2022-12-07T10:32:35;97502.91;;;4.10;78.60
38912;BME280;28444;48.056;14.408;2022-12-07T10:35:28;97496.31;;;4.06;78.37
38912;BME280;28444;48.056;14.408;2022-12-07T10:37:57;97495.81;;;4.07;78.79
38912;BME280;28444;48.056;14.408;2022-12-07T10:40:42;97493.00;;;4.13;79.32
38912;BME280;28444;48.056;14.408;2022-12-07T10:43:21;97496.53;;;4.08;78.76
38912;BME280;28444;48.056;14.408;2022-12-07T10:46:19;97483.50;;;4.06;80.63
38912;BME280;28444;48.056;14.408;2022-12-07T10:52:01;97489.56;;;4.13;77.02
38912;BME280;28444;48.056;14.408;2022-12-07T10:54:55;97484.47;;;4.09;76.91
38912;BME280;28444;48.056;14.408;2022-12-07T11:00:27;97494.66;;;4.03;78.08
38912;BME280;28444;48.056;14.408;2022-12-07T11:03:37;97496.53;;;4.08;77.57
38912;BME280;28444;48.056;14.408;2022-12-07T11:06:55;97493.09;;;3.94;78.39
38912;BME280;28444;48.056;14.408;2022-12-07T11:13:25;97492.56;;;4.09;77.84
38912;BME280;28444;48.056;14.408;2022-12-07T11:22:57;97491.84;;;4.08;79.10
38912;BME280;28444;48.056;14.408;2022-12-07T11:28:32;97486.53;;;4.16;79.22
38912;BME280;28444;48.056;14.408;2022-12-07T11:31:30;97483.81;;;4.03;77.55
38912;BME280;28444;48.056;14.408;2022-12-07T11:37:18;97477.38;;;4.19;78.35
38912;BME280;28444;48.056;14.408;2022-12-07T11:39:52;97475.50;;;4.01;76.88
38912;BME280;28444;48.056;14.408;2022-12-07T11:42:22;97468.53;;;4.05;76.51
38912;BME280;28444;48.056;14.408;2022-12-07T11:45:15;97471.16;;;4.11;77.79
38912;BME280;28444;48.056;14.408;2022-12-07T11:48:02;97464.34;;;3.91;77.48
38912;BME280;28444;48.056;14.408;2022-12-07T11:50:36;97464.47;;;3.99;77.63
38912;BME280;28444;48.056;14.408;2022-12-07T11:53:04;97464.69;;;4.01;77.80
38912;BME280;28444;48.056;14.408;2022-12-07T11:56:15;97462.69;;;4.01;78.24
38912;BME280;28444;48.056;14.408;2022-12-07T11:59:23;97467.72;;;4.10;79.60
38912;BME280;28444;48.056;14.408;2022-12-07T12:02:19;97454.50;;;4.07;78.00
38912;BME280;28444;48.056;14.408;2022-12-07T12:04:59;97462.91;;;3.90;77.28
38912;BME280;28444;48.056;14.408;2022-12-07T12:07:31;97462.78;;;3.96;77.07
38912;BME280;28444;48.056;14.408;2022-12-07T12:10:59;97452.09;;;3.90;75.99
38912;BME280;28444;48.056;14.408;2022-12-07T12:17:13;97453.53;;;4.04;75.80
38912;BME280;28444;48.056;14.408;2022-12-07T12:20:13;97445.63;;;4.06;75.34
38912;BME280;28444;48.056;14.408;2022-12-07T12:22:48;97432.94;;;4.01;76.43
38912;BME280;28444;48.056;14.408;2022-12-07T12:25:34;97438.66;;;3.98;76.75
38912;BME280;28444;48.056;14.408;2022-12-07T12:28:03;97440.03;;;4.04;76.45
38912;BME280;28444;48.056;14.408;2022-12-07T12:30:39;97432.94;;;4.01;75.86
38912;BME280;28444;48.056;14.408;2022-12-07T12:33:16;97437.09;;;3.89;75.22
38912;BME280;28444;48.056;14.408;2022-12-07T12:35:46;97432.22;;;4.01;75.58
38912;BME280;28444;48.056;14.408;2022-12-07T12:38:34;97427.13;;;4.10;75.99
38912;BME280;28444;48.056;14.408;2022-12-07T12:45:05;97431.91;;;4.04;76.34
38912;BME280;28444;48.056;14.408;2022-12-07T12:47:53;97433.88;;;4.17;76.82
38912;BME280;28444;48.056;14.408;2022-12-07T12:50:25;97423.47;;;4.08;76.06
38912;BME280;28444;48.056;14.408;2022-12-07T12:56:19;97422.50;;;4.32;77.24
38912;BME280;28444;48.056;14.408;2022-12-07T13:05:23;97421.28;;;4.20;77.22
38912;BME280;28444;48.056;14.408;2022-12-07T13:10:34;97416.91;;;4.17;76.73
38912;BME280;28444;48.056;14.408;2022-12-07T13:15:38;97413.91;;;4.07;77.57
38912;BME280;28444;48.056;14.408;2022-12-07T13:23:58;97413.25;;;3.88;76.75
38912;BME280;28444;48.056;14.408;2022-12-07T13:26:44;97415.88;;;3.93;76.37
38912;BME280;28444;48.056;14.408;2022-12-07T13:29:19;97412.34;;;3.85;76.74
38912;BME280;28444;48.056;14.408;2022-12-07T13:31:54;97417.44;;;3.89;75.99
38912;BME280;28444;48.056;14.408;2022-12-07T13:34:47;97424.50;;;3.92;76.84
38912;BME280;28444;48.056;14.408;2022-12-07T13:40:18;97421.28;;;3.93;77.71
38912;BME280;28444;48.056;14.408;2022-12-07T13:42:46;97419.41;;;3.75;76.35
38912;BME280;28444;48.056;14.408;2022-12-07T13:45:25;97417.41;;;3.75;77.65
38912;BME280;28444;48.056;14.408;2022-12-07T13:48:30;97415.66;;;3.78;77.15
38912;BME280;28444;48.056;14.408;2022-12-07T13:51:00;97412.66;;;3.81;77.29
38912;BME280;28444;48.056;14.408;2022-12-07T13:53:28;97420.66;;;3.87;76.94
38912;BME280;28444;48.056;14.408;2022-12-07T13:55:57;97412.22;;;3.91;76.35
38912;BME280;28444;48.056;14.408;2022-12-07T13:58:26;97409.31;;;4.02;76.03
38912;BME280;28444;48.056;14.408;2022-12-07T14:00:56;97414.84;;;3.96;76.60
38912;BME280;28444;48.056;14.408;2022-12-07T14:03:34;97407.94;;;3.95;76.77
38912;BME280;28444;48.056;14.408;2022-12-07T14:06:05;97412.84;;;3.83;77.00
38912;BME280;28444;48.056;14.408;2022-12-07T14:08:32;97410.25;;;3.91;75.92
38912;BME280;28444;48.056;14.408;2022-12-07T14:10:59;97409.63;;;3.85;76.84
38912;BME280;28444;48.056;14.408;2022-12-07T14:13:38;97408.69;;;3.82;76.76
38912;BME280;28444;48.056;14.408;2022-12-07T14:16:33;97412.00;;;3.75;77.80
38912;BME280;28444;48.056;14.408;2022-12-07T14:19:06;97407.25;;;3.81;77.50
38912;BME280;28444;48.056;14.408;2022-12-07T14:22:07;97405.66;;;3.73;77.06
38912;BME280;28444;48.056;14.408;2022-12-07T14:24:44;97410.72;;;3.63;77.68
38912;BME280;28444;48.056;14.408;2022-12-07T14:27:22;97407.50;;;3.51;77.50
38912;BME280;28444;48.056;14.408;2022-12-07T14:29:51;97405.81;;;3.48;79.47
38912;BME280;28444;48.056;14.408;2022-12-07T14:32:26;97412.72;;;3.49;77.90
38912;BME280;28444;48.056;14.408;2022-12-07T14:35:17;97406.13;;;3.45;78.66
38912;BME280;28444;48.056;14.408;2022-12-07T14:37:46;97402.91;;;3.46;79.45
38912;BME280;28444;48.056;14.408;2022-12-07T14:40:22;97412.72;;;3.49;79.96